createdAt,value
2019-05-01T00:00:58.297Z,21.75
2019-05-01T00:03:39.945Z,23.10
2019-05-01T00:06:10.021Z,22.00
2019-05-01T00:08:38.419Z,22.50
2019-05-01T00:11:06.846Z,23.35
2019-05-01T00:13:35.279Z,22.82
2019-05-01T00:16:03.704Z,22.02
2019-05-01T00:18:32.121Z,20.57
2019-05-01T00:21:00.938Z,22.07
2019-05-01T00:23:29.793Z,22.98
2019-05-01T00:25:58.205Z,26.10
2019-05-01T00:28:26.614Z,21.80
2019-05-01T00:30:55.332Z,25.32
2019-05-01T00:33:24.086Z,22.77
2019-05-01T00:35:52.569Z,24.98
2019-05-01T00:38:20.973Z,22.25
2019-05-01T00:40:49.388Z,22.15
2019-05-01T00:43:17.809Z,21.12
2019-05-01T00:45:46.218Z,22.77
2019-05-01T00:48:14.652Z,25.12
2019-05-01T00:50:43.052Z,23.05
2019-05-01T00:53:11.534Z,22.85
2019-05-01T00:55:44.081Z,23.38
2019-05-01T00:58:16.841Z,23.27
2019-05-01T01:00:49.577Z,23.00
2019-05-01T01:03:18.137Z,21.40
2019-05-01T01:05:46.550Z,20.80
2019-05-01T01:08:15.049Z,23.10
2019-05-01T01:10:43.478Z,20.27
2019-05-01T01:13:11.907Z,19.92
2019-05-01T01:15:40.306Z,23.45
2019-05-01T01:18:08.721Z,19.85
2019-05-01T01:20:37.131Z,20.90
2019-05-01T01:23:05.625Z,21.77
2019-05-01T01:25:34.098Z,22.22
2019-05-01T01:28:02.783Z,21.23
2019-05-01T01:30:31.257Z,21.57
2019-05-01T01:32:59.662Z,20.35
2019-05-01T01:35:28.284Z,19.98
2019-05-01T01:37:56.698Z,21.05
2019-05-01T01:40:25.101Z,20.27
2019-05-01T01:42:55.682Z,20.12
2019-05-01T01:45:38.849Z,20.52
2019-05-01T01:48:11.961Z,22.48
2019-05-01T01:50:43.425Z,22.22
2019-05-01T01:53:15.041Z,22.87
2019-05-01T01:55:44.162Z,21.75
2019-05-01T01:58:13.199Z,22.20
2019-05-01T02:00:49.890Z,22.05
2019-05-01T02:03:18.977Z,20.82
2019-05-01T02:05:47.457Z,19.85
2019-05-01T02:08:15.951Z,19.98
2019-05-01T02:10:44.515Z,22.15
2019-05-01T02:13:13.267Z,20.52
2019-05-01T02:15:41.718Z,23.45
2019-05-01T02:18:10.201Z,20.97
2019-05-01T02:20:38.617Z,19.92
2019-05-01T02:23:07.026Z,20.50
2019-05-01T02:25:37.421Z,20.25
2019-05-01T02:28:22.907Z,22.42
2019-05-01T02:31:26.698Z,22.30
2019-05-01T02:33:43.548Z,20.27
2019-05-01T02:36:13.794Z,20.50
2019-05-01T02:38:44.566Z,20.40
2019-05-01T02:41:14.416Z,21.33
2019-05-01T02:43:45.654Z,20.75
2019-05-01T02:46:16.907Z,20.50
2019-05-01T02:48:48.411Z,21.37
2019-05-01T02:51:18.437Z,22.65
2019-05-01T02:53:48.780Z,21.23
2019-05-01T02:56:31.420Z,22.58
2019-05-01T02:59:01.461Z,20.37
2019-05-01T03:01:45.503Z,18.67
2019-05-01T03:04:00.644Z,20.77
2019-05-01T03:06:31.950Z,19.45
2019-05-01T03:09:04.557Z,20.00
2019-05-01T03:11:34.197Z,20.43
2019-05-01T03:14:03.843Z,18.90
2019-05-01T03:16:34.685Z,18.60
2019-05-01T03:19:16.271Z,22.05
2019-05-01T03:21:46.507Z,19.55
2019-05-01T03:24:16.769Z,20.12
2019-05-01T03:26:45.453Z,18.23
2019-05-01T03:29:14.082Z,19.57
2019-05-01T03:31:42.673Z,19.35
2019-05-01T03:34:11.080Z,19.60
2019-05-01T03:36:39.578Z,19.23
2019-05-01T03:39:08.063Z,20.85
2019-05-01T03:41:36.483Z,20.02
2019-05-01T03:44:05.520Z,18.98
2019-05-01T03:46:34.581Z,20.32
2019-05-01T03:49:03.735Z,20.10
2019-05-01T03:51:32.291Z,20.37
2019-05-01T03:54:02.038Z,20.77
2019-05-01T03:56:30.458Z,20.00
2019-05-01T03:58:59.695Z,18.90
2019-05-01T04:01:36.498Z,23.22
2019-05-01T04:04:07.003Z,20.20
2019-05-01T04:06:36.723Z,18.10
2019-05-01T04:09:07.325Z,20.32
2019-05-01T04:11:36.383Z,20.40
2019-05-01T04:14:05.737Z,19.37
2019-05-01T04:16:34.647Z,19.15
2019-05-01T04:19:04.649Z,22.05
2019-05-01T04:21:35.158Z,19.98
2019-05-01T04:24:03.993Z,21.42
2019-05-01T04:26:32.682Z,19.40
2019-05-01T04:29:22.332Z,20.82
2019-05-01T04:31:53.130Z,21.12
2019-05-01T04:34:32.134Z,19.57
2019-05-01T04:37:03.122Z,19.70
2019-05-01T04:39:32.383Z,19.80
2019-05-01T04:42:01.148Z,18.77
2019-05-01T04:44:29.635Z,18.17
2019-05-01T04:46:58.602Z,20.50
2019-05-01T04:49:27.486Z,17.65
2019-05-01T04:51:57.154Z,21.12
2019-05-01T04:54:25.848Z,16.97
2019-05-01T04:56:54.352Z,16.35
2019-05-01T04:59:22.932Z,19.62
2019-05-01T05:01:56.735Z,19.42
2019-05-01T05:04:24.685Z,20.40
2019-05-01T05:06:54.037Z,19.25
2019-05-01T05:09:42.322Z,20.30
2019-05-01T05:12:25.397Z,17.98
2019-05-01T05:15:11.697Z,18.65
2019-05-01T05:17:40.385Z,20.00
2019-05-01T05:20:08.856Z,21.37
2019-05-01T05:22:37.396Z,17.87
2019-05-01T05:25:06.305Z,21.27
2019-05-01T05:27:35.069Z,20.10
2019-05-01T05:30:04.005Z,20.17
2019-05-01T05:32:35.645Z,20.55
2019-05-01T05:35:06.104Z,22.42
2019-05-01T05:37:55.937Z,21.62
2019-05-01T05:40:26.566Z,20.17
2019-05-01T05:42:54.981Z,20.17
2019-05-01T05:45:24.039Z,19.82
2019-05-01T05:47:52.808Z,20.85
2019-05-01T05:50:23.520Z,20.57
2019-05-01T05:52:57.260Z,19.80
2019-05-01T05:55:30.401Z,20.23
2019-05-01T05:58:02.990Z,20.17
2019-05-01T06:00:37.615Z,19.10
2019-05-01T06:03:31.327Z,19.77
2019-05-01T06:06:04.446Z,19.83
2019-05-01T06:08:35.950Z,19.07
2019-05-01T06:11:09.705Z,19.90
2019-05-01T06:13:40.294Z,18.50
2019-05-01T06:16:12.229Z,17.87
2019-05-01T06:18:48.329Z,19.37
2019-05-01T06:21:24.487Z,18.50
2019-05-01T06:24:05.923Z,20.20
2019-05-01T06:26:37.534Z,20.10
2019-05-01T06:29:03.576Z,19.10
2019-05-01T06:31:32.349Z,19.90
2019-05-01T06:34:01.234Z,18.77
2019-05-01T06:36:29.733Z,18.00
2019-05-01T06:39:00.117Z,19.10
2019-05-01T06:41:33.743Z,17.70
2019-05-01T06:44:10.768Z,18.57
2019-05-01T06:46:53.170Z,17.00
2019-05-01T06:49:24.374Z,17.47
2019-05-01T06:51:59.315Z,19.80
2019-05-01T06:54:29.538Z,18.57
2019-05-01T06:57:00.394Z,18.10
2019-05-01T06:59:31.316Z,18.23
2019-05-01T07:02:01.522Z,17.80
2019-05-01T07:04:32.455Z,16.20
2019-05-01T07:07:06.594Z,18.07
2019-05-01T07:09:34.454Z,17.57
2019-05-01T07:12:05.957Z,17.90
2019-05-01T07:14:34.996Z,19.00
2019-05-01T07:17:03.568Z,16.53
2019-05-01T07:19:50.302Z,17.50
2019-05-01T07:22:19.206Z,17.10
2019-05-01T07:24:49.153Z,16.63
2019-05-01T07:27:18.770Z,17.30
2019-05-01T07:29:49.549Z,16.20
2019-05-01T07:32:19.638Z,18.03
2019-05-01T07:34:48.977Z,17.87
2019-05-01T07:37:20.766Z,16.37
2019-05-01T07:39:50.043Z,17.10
2019-05-01T07:42:29.508Z,16.00
2019-05-01T07:45:10.629Z,15.10
2019-05-01T07:47:40.874Z,14.27
2019-05-01T07:50:14.498Z,14.30
2019-05-01T07:52:47.680Z,13.90
2019-05-01T07:55:18.139Z,13.70
2019-05-01T07:57:45.061Z,14.60
2019-05-01T08:00:15.781Z,14.70
2019-05-01T08:02:44.272Z,14.30
2019-05-01T08:05:21.374Z,23.63
2019-05-01T08:07:49.877Z,23.00
2019-05-01T08:10:20.912Z,21.83
2019-05-01T08:12:48.659Z,15.30
2019-05-01T08:15:17.081Z,15.20
2019-05-01T08:17:48.795Z,12.90
2019-05-01T08:20:24.851Z,10.50
2019-05-01T08:22:53.350Z,13.07
2019-05-01T08:25:21.753Z,12.47
2019-05-01T08:27:56.435Z,13.23
2019-05-01T08:30:23.728Z,13.77
2019-05-01T08:32:53.805Z,14.20
2019-05-01T08:35:23.865Z,12.67
2019-05-01T08:37:53.726Z,12.40
2019-05-01T08:40:22.417Z,11.93
2019-05-01T08:42:50.843Z,13.27
2019-05-01T08:45:23.350Z,22.10
2019-05-01T08:48:08.394Z,19.17
2019-05-01T08:50:36.835Z,13.30
2019-05-01T08:53:05.328Z,13.73
2019-05-01T08:55:33.733Z,12.60
2019-05-01T08:58:02.172Z,12.13
2019-05-01T09:00:35.527Z,13.10
2019-05-01T09:03:08.305Z,13.40
2019-05-01T09:05:33.941Z,11.90
2019-05-01T09:08:01.749Z,10.80
2019-05-01T09:10:30.249Z,10.43
2019-05-01T09:12:58.653Z,9.07
2019-05-01T09:15:27.065Z,10.10
2019-05-01T09:17:55.505Z,14.67
2019-05-01T09:20:24.383Z,9.73
2019-05-01T09:22:52.806Z,12.03
2019-05-01T09:25:22.889Z,14.03
2019-05-01T09:27:52.977Z,13.43
2019-05-01T09:30:26.975Z,11.03
2019-05-01T09:32:54.654Z,9.60
2019-05-01T09:35:23.869Z,9.80
2019-05-01T09:37:52.377Z,10.60
2019-05-01T09:40:20.777Z,10.50
2019-05-01T09:42:49.270Z,10.60
2019-05-01T09:45:18.128Z,11.43
2019-05-01T09:47:46.630Z,8.57
2019-05-01T09:50:15.516Z,9.80
2019-05-01T09:52:59.701Z,6.77
2019-05-01T09:55:38.869Z,8.87
2019-05-01T09:58:07.354Z,9.80
2019-05-01T10:00:35.789Z,9.47
2019-05-01T10:03:04.605Z,10.83
2019-05-01T10:05:33.046Z,8.70
2019-05-01T10:08:04.117Z,9.60
2019-05-01T10:10:31.829Z,10.10
2019-05-01T10:13:00.346Z,10.90
2019-05-01T10:15:28.749Z,9.90
2019-05-01T10:17:57.161Z,10.00
2019-05-01T10:20:25.592Z,10.67
2019-05-01T10:22:54.094Z,9.20
2019-05-01T10:25:22.501Z,8.60
2019-05-01T10:27:58.525Z,10.17
2019-05-01T10:30:45.029Z,10.10
2019-05-01T10:33:15.099Z,10.00
2019-05-01T10:35:47.826Z,9.97
2019-05-01T10:38:16.253Z,10.50
2019-05-01T10:40:44.665Z,8.97
2019-05-01T10:43:13.106Z,10.67
2019-05-01T10:45:41.894Z,10.80
2019-05-01T10:48:10.368Z,12.37
2019-05-01T10:50:39.163Z,15.73
2019-05-01T10:53:07.604Z,11.47
2019-05-01T10:55:36.026Z,10.20
2019-05-01T10:58:04.591Z,11.60
2019-05-01T11:00:33.779Z,10.33
2019-05-01T11:03:02.204Z,10.30
2019-05-01T11:05:30.621Z,11.00
2019-05-01T11:07:59.103Z,11.23
2019-05-01T11:10:27.546Z,10.87
2019-05-01T11:12:55.963Z,12.20
2019-05-01T11:15:24.446Z,14.07
2019-05-01T11:17:53.682Z,13.10
2019-05-01T11:20:22.118Z,11.27
2019-05-01T11:22:50.537Z,12.80
2019-05-01T11:25:20.482Z,12.57
2019-05-01T11:27:48.901Z,11.60
2019-05-01T11:30:17.398Z,12.70
2019-05-01T11:32:53.233Z,11.63
2019-05-01T11:35:39.729Z,11.70
2019-05-01T11:38:09.781Z,11.07
2019-05-01T11:40:40.135Z,11.30
2019-05-01T11:43:08.558Z,11.90
2019-05-01T11:45:37.012Z,11.50
2019-05-01T11:48:05.668Z,11.47
2019-05-01T11:50:34.389Z,10.83
2019-05-01T11:53:02.866Z,12.83
2019-05-01T11:55:31.289Z,12.30
2019-05-01T11:57:59.718Z,11.47
2019-05-01T12:00:28.142Z,12.30
2019-05-01T12:02:56.557Z,12.10
2019-05-01T12:05:24.995Z,12.10
2019-05-01T12:07:53.482Z,11.73
2019-05-01T12:10:22.152Z,10.63
2019-05-01T12:12:50.577Z,12.70
2019-05-01T12:15:19.285Z,11.67
2019-05-01T12:17:48.869Z,11.17
2019-05-01T12:20:18.502Z,10.87
2019-05-01T12:22:49.575Z,11.43
2019-05-01T12:25:17.862Z,11.70
2019-05-01T12:27:46.322Z,11.27
2019-05-01T12:30:16.655Z,10.50
2019-05-01T12:32:45.144Z,10.00
2019-05-01T12:35:13.721Z,9.80
2019-05-01T12:37:42.713Z,8.60
2019-05-01T12:40:13.637Z,11.40
2019-05-01T12:42:42.141Z,10.33
2019-05-01T12:45:12.613Z,10.40
2019-05-01T12:47:45.659Z,10.07
2019-05-01T12:50:15.926Z,10.07
2019-05-01T12:52:46.946Z,9.97
2019-05-01T12:55:23.222Z,10.47
2019-05-01T12:57:51.641Z,11.20
2019-05-01T13:00:23.415Z,10.67
2019-05-01T13:02:51.841Z,10.07
2019-05-01T13:05:20.250Z,9.80
2019-05-01T13:07:48.740Z,11.23
2019-05-01T13:10:17.150Z,9.73
2019-05-01T13:12:45.567Z,11.03
2019-05-01T13:15:14.140Z,11.67
2019-05-01T13:17:42.906Z,10.73
2019-05-01T13:20:11.454Z,11.13
2019-05-01T13:22:39.882Z,10.80
2019-05-01T13:25:08.359Z,10.50
2019-05-01T13:27:41.167Z,11.07
2019-05-01T13:30:16.453Z,9.90
2019-05-01T13:32:46.349Z,9.00
2019-05-01T13:35:14.775Z,10.37
2019-05-01T13:37:43.267Z,10.73
2019-05-01T13:40:13.123Z,10.57
2019-05-01T13:42:41.700Z,11.20
2019-05-01T13:45:10.443Z,10.60
2019-05-01T13:47:39.117Z,9.87
2019-05-01T13:50:08.080Z,8.73
2019-05-01T13:52:36.578Z,9.80
2019-05-01T13:55:06.237Z,10.00
2019-05-01T13:57:35.205Z,9.67
2019-05-01T14:00:06.357Z,9.40
2019-05-01T14:02:34.927Z,8.63
2019-05-01T14:05:04.695Z,9.43
2019-05-01T14:07:33.113Z,9.03
2019-05-01T14:10:01.870Z,8.13
2019-05-01T14:12:30.294Z,8.73
2019-05-01T14:14:58.978Z,9.80
2019-05-01T14:17:27.402Z,8.83
2019-05-01T14:19:58.608Z,7.70
2019-05-01T14:22:45.329Z,9.43
2019-05-01T14:25:14.709Z,9.10
2019-05-01T14:27:43.143Z,9.60
2019-05-01T14:30:12.286Z,9.43
2019-05-01T14:32:40.718Z,9.07
2019-05-01T14:35:10.273Z,8.40
2019-05-01T14:37:38.725Z,9.53
2019-05-01T14:40:07.865Z,8.20
2019-05-01T14:42:36.300Z,9.07
2019-05-01T14:45:07.863Z,7.90
2019-05-01T14:47:36.276Z,8.17
2019-05-01T14:50:06.849Z,8.03
2019-05-01T14:52:35.344Z,7.70
2019-05-01T14:55:07.807Z,7.50
2019-05-01T14:57:36.586Z,7.37
2019-05-01T15:00:08.487Z,7.20
2019-05-01T15:02:37.007Z,7.37
2019-05-01T15:05:07.166Z,8.70
2019-05-01T15:07:43.401Z,8.10
2019-05-01T15:10:06.342Z,8.80
2019-05-01T15:12:34.791Z,7.97
2019-05-01T15:15:21.498Z,8.63
2019-05-01T15:17:51.599Z,8.43
2019-05-01T15:20:20.058Z,7.80
2019-05-01T15:22:48.510Z,8.37
2019-05-01T15:25:16.929Z,8.07
2019-05-01T15:27:45.410Z,8.57
2019-05-01T15:30:16.910Z,7.83
2019-05-01T15:32:45.503Z,10.17
2019-05-01T15:35:14.134Z,9.20
2019-05-01T15:37:55.777Z,8.13
2019-05-01T15:40:14.930Z,8.23
2019-05-01T15:42:45.021Z,8.87
2019-05-01T15:45:14.013Z,8.50
2019-05-01T15:47:42.425Z,7.13
2019-05-01T15:50:11.379Z,8.10
2019-05-01T15:52:39.855Z,8.00
2019-05-01T15:55:08.797Z,7.27
2019-05-01T15:57:37.216Z,7.23
2019-05-01T16:00:08.621Z,7.67
2019-05-01T16:02:37.042Z,7.80
2019-05-01T16:05:06.596Z,6.03
2019-05-01T16:07:34.993Z,8.00
2019-05-01T16:10:09.606Z,9.07
2019-05-01T16:12:39.828Z,7.30
2019-05-01T16:15:10.850Z,8.57
2019-05-01T16:17:39.249Z,8.20
2019-05-01T16:20:08.823Z,8.33
2019-05-01T16:22:37.267Z,7.53
2019-05-01T16:25:06.998Z,7.70
2019-05-01T16:27:35.418Z,7.87
2019-05-01T16:30:06.465Z,8.73
2019-05-01T16:32:34.881Z,7.63
2019-05-01T16:35:03.296Z,8.50
2019-05-01T16:37:32.197Z,7.33
2019-05-01T16:40:11.273Z,6.40
2019-05-01T16:42:40.006Z,7.10
2019-05-01T16:45:09.053Z,8.37
2019-05-01T16:47:37.474Z,7.47
2019-05-01T16:50:08.126Z,6.90
2019-05-01T16:52:36.802Z,7.80
2019-05-01T16:55:07.440Z,6.80
2019-05-01T16:57:35.842Z,7.80
2019-05-01T17:00:07.209Z,8.50
2019-05-01T17:02:55.390Z,8.00
2019-05-01T17:05:43.481Z,7.83
2019-05-01T17:08:16.333Z,8.10
2019-05-01T17:10:46.658Z,8.50
2019-05-01T17:13:15.133Z,8.13
2019-05-01T17:15:45.753Z,7.63
2019-05-01T17:18:14.162Z,7.80
2019-05-01T17:20:42.589Z,8.00
2019-05-01T17:23:11.019Z,6.67
2019-05-01T17:25:39.458Z,9.33
2019-05-01T17:28:09.433Z,16.70
2019-05-01T17:30:47.677Z,8.43
2019-05-01T17:33:20.680Z,9.80
2019-05-01T17:35:47.037Z,8.17
2019-05-01T17:38:15.746Z,7.17
2019-05-01T17:40:47.486Z,7.80
2019-05-01T17:43:15.459Z,8.37
2019-05-01T17:45:44.049Z,7.50
2019-05-01T17:48:12.526Z,8.93
2019-05-01T17:50:40.961Z,8.37
2019-05-01T17:53:09.836Z,7.80
2019-05-01T17:55:38.244Z,8.60
2019-05-01T17:58:06.993Z,9.17
2019-05-01T18:00:37.058Z,8.47
2019-05-01T18:03:19.669Z,7.20
2019-05-01T18:05:56.081Z,8.80
2019-05-01T18:08:25.751Z,8.63
2019-05-01T18:10:54.197Z,8.20
2019-05-01T18:13:22.613Z,9.13
2019-05-01T18:15:51.096Z,8.53
2019-05-01T18:18:19.540Z,9.17
2019-05-01T18:20:48.103Z,11.73
2019-05-01T18:23:24.269Z,14.13
2019-05-01T18:26:00.091Z,15.83
2019-05-01T18:28:46.182Z,10.60
2019-05-01T18:31:16.297Z,10.90
2019-05-01T18:33:44.762Z,9.83
2019-05-01T18:36:13.170Z,9.87
2019-05-01T18:38:47.725Z,12.00
2019-05-01T18:41:21.009Z,13.40
2019-05-01T18:43:51.899Z,11.07
2019-05-01T18:46:20.303Z,8.00
2019-05-01T18:48:48.783Z,10.47
2019-05-01T18:51:17.281Z,22.00
2019-05-01T18:53:50.110Z,23.33
2019-05-01T18:56:18.555Z,20.47
2019-05-01T18:58:47.045Z,42.00
2019-05-01T19:01:15.538Z,42.07
2019-05-01T19:03:44.212Z,37.47
2019-05-01T19:06:12.740Z,27.80
2019-05-01T19:08:41.359Z,19.13
2019-05-01T19:11:12.584Z,19.10
2019-05-01T19:13:40.631Z,17.57
2019-05-01T19:16:09.907Z,14.27
2019-05-01T19:18:38.684Z,12.00
2019-05-01T19:21:07.229Z,9.57
2019-05-01T19:23:36.199Z,8.73
2019-05-01T19:26:06.640Z,11.10
2019-05-01T19:28:35.118Z,9.87
2019-05-01T19:31:03.769Z,10.50
2019-05-01T19:33:32.266Z,9.13
2019-05-01T19:36:02.702Z,9.30
2019-05-01T19:38:34.787Z,9.70
2019-05-01T19:41:03.511Z,8.37
2019-05-01T19:43:35.830Z,9.93
2019-05-01T19:46:04.354Z,9.20
2019-05-01T19:48:32.777Z,7.90
2019-05-01T19:51:02.798Z,9.60
2019-05-01T19:53:31.390Z,9.50
2019-05-01T19:55:59.845Z,8.67
2019-05-01T19:58:28.373Z,8.37
2019-05-01T20:01:04.220Z,10.43
2019-05-01T20:03:36.323Z,9.20
2019-05-01T20:06:05.476Z,8.90
2019-05-01T20:08:32.329Z,8.90
2019-05-01T20:11:02.159Z,9.27
2019-05-01T20:13:30.780Z,8.13
2019-05-01T20:15:59.524Z,8.50
2019-05-01T20:18:27.999Z,9.53
2019-05-01T20:20:56.889Z,10.50
2019-05-01T20:23:31.170Z,10.03
2019-05-01T20:25:57.235Z,9.27
2019-05-01T20:28:25.828Z,9.50
2019-05-01T20:30:54.393Z,10.80
2019-05-01T20:33:22.842Z,10.63
2019-05-01T20:35:51.410Z,9.20
2019-05-01T20:38:19.860Z,9.40
2019-05-01T20:40:48.339Z,9.43
2019-05-01T20:43:16.775Z,10.10
2019-05-01T20:45:49.367Z,10.47
2019-05-01T20:48:18.425Z,11.77
2019-05-01T20:50:45.778Z,13.10
2019-05-01T20:53:14.189Z,10.43
2019-05-01T20:55:44.268Z,9.43
2019-05-01T20:58:17.414Z,10.43
2019-05-01T21:00:48.057Z,13.20
2019-05-01T21:03:18.219Z,12.43
2019-05-01T21:05:51.668Z,12.10
2019-05-01T21:08:28.996Z,10.07
2019-05-01T21:11:05.891Z,10.60
2019-05-01T21:13:32.201Z,9.20
2019-05-01T21:16:01.852Z,9.80
2019-05-01T21:18:31.090Z,9.20
2019-05-01T21:20:59.527Z,10.53
2019-05-01T21:23:27.925Z,9.77
2019-05-01T21:25:56.348Z,11.03
2019-05-01T21:28:24.762Z,10.63
2019-05-01T21:30:54.382Z,11.27
2019-05-01T21:33:23.768Z,10.30
2019-05-01T21:35:53.341Z,9.97
2019-05-01T21:38:22.062Z,11.00
2019-05-01T21:40:50.490Z,11.27
2019-05-01T21:43:19.005Z,10.93
2019-05-01T21:45:47.629Z,10.20
2019-05-01T21:48:16.061Z,9.97
2019-05-01T21:50:44.477Z,10.47
2019-05-01T21:53:14.154Z,11.60
2019-05-01T21:55:42.617Z,11.77
2019-05-01T21:58:11.102Z,9.40
2019-05-01T22:00:41.309Z,10.83
2019-05-01T22:03:09.883Z,10.50
2019-05-01T22:05:39.605Z,9.10
2019-05-01T22:08:09.310Z,9.93
2019-05-01T22:10:50.750Z,9.97
2019-05-01T22:13:08.874Z,10.97
2019-05-01T22:15:41.979Z,12.77
2019-05-01T22:18:17.155Z,11.45
2019-05-01T22:20:47.872Z,11.23
2019-05-01T22:23:34.312Z,10.30
2019-05-01T22:26:02.878Z,10.40
2019-05-01T22:28:35.885Z,11.03
2019-05-01T22:31:05.957Z,11.90
2019-05-01T22:33:34.876Z,11.63
2019-05-01T22:36:03.317Z,11.33
2019-05-01T22:38:31.740Z,10.17
2019-05-01T22:41:07.817Z,10.18
2019-05-01T22:43:36.236Z,11.17
2019-05-01T22:46:06.566Z,11.00
2019-05-01T22:48:35.000Z,10.90
2019-05-01T22:51:05.478Z,10.93
2019-05-01T22:53:33.987Z,11.05
2019-05-01T22:56:04.075Z,10.93
2019-05-01T22:58:32.751Z,10.80
2019-05-01T23:01:01.634Z,10.93
2019-05-01T23:03:46.974Z,11.40
2019-05-01T23:06:15.773Z,11.50
2019-05-01T23:08:44.261Z,12.20
2019-05-01T23:11:19.598Z,12.95
2019-05-01T23:13:43.631Z,12.03
2019-05-01T23:16:12.388Z,13.30
2019-05-01T23:18:40.812Z,12.93
2019-05-01T23:21:09.891Z,12.63
2019-05-01T23:23:39.440Z,11.95
2019-05-01T23:26:11.778Z,12.30
2019-05-01T23:28:39.850Z,12.53
2019-05-01T23:31:08.313Z,11.95
2019-05-01T23:33:36.737Z,11.25
2019-05-01T23:36:05.245Z,14.00
2019-05-01T23:38:33.725Z,11.08
2019-05-01T23:41:02.244Z,11.53
2019-05-01T23:43:30.665Z,11.88
2019-05-01T23:45:59.097Z,11.60
2019-05-01T23:48:27.910Z,12.37
2019-05-01T23:50:56.329Z,14.80
2019-05-01T23:53:24.746Z,10.53
2019-05-01T23:55:54.557Z,11.53
2019-05-01T23:58:23.318Z,14.03
